sensor_id;sensor_type;location;lat;lon;timestamp;P1;durP1;ratioP1;P2;durP2;ratioP2
19456;SDS011;9867;48.094;11.478;2022-12-20T00:01:57;6.37;;;5.73;;
19456;SDS011;9867;48.094;11.478;2022-12-20T00:04:25;6.90;;;6.20;;
19456;SDS011;9867;48.094;11.478;2022-12-20T00:06:55;7.37;;;5.83;;
19456;SDS011;9867;48.094;11.478;2022-12-20T00:09:22;6.73;;;5.80;;
19456;SDS011;9867;48.094;11.478;2022-12-20T00:11:51;8.37;;;6.63;;
19456;SDS011;9867;48.094;11.478;2022-12-20T00:14:19;6.47;;;5.80;;
19456;SDS011;9867;48.094;11.478;2022-12-20T00:16:47;6.03;;;5.43;;
19456;SDS011;9867;48.094;11.478;2022-12-20T00:19:15;5.70;;;5.10;;
19456;SDS011;9867;48.094;11.478;2022-12-20T00:21:43;6.00;;;5.40;;
19456;SDS011;9867;48.094;11.478;2022-12-20T00:24:12;5.70;;;5.20;;
19456;SDS011;9867;48.094;11.478;2022-12-20T00:26:47;5.73;;;4.70;;
19456;SDS011;9867;48.094;11.478;2022-12-20T00:29:15;5.70;;;4.47;;
19456;SDS011;9867;48.094;11.478;2022-12-20T00:31:43;4.87;;;4.40;;
19456;SDS011;9867;48.094;11.478;2022-12-20T00:34:11;4.53;;;4.13;;
19456;SDS011;9867;48.094;11.478;2022-12-20T00:36:39;4.27;;;3.87;;
19456;SDS011;9867;48.094;11.478;2022-12-20T00:39:08;4.33;;;3.93;;
19456;SDS011;9867;48.094;11.478;2022-12-20T00:41:38;4.67;;;3.77;;
19456;SDS011;9867;48.094;11.478;2022-12-20T00:44:06;3.70;;;3.40;;
19456;SDS011;9867;48.094;11.478;2022-12-20T00:46:34;3.90;;;3.60;;
19456;SDS011;9867;48.094;11.478;2022-12-20T00:49:02;3.33;;;3.03;;
19456;SDS011;9867;48.094;11.478;2022-12-20T00:51:29;3.47;;;3.17;;
19456;SDS011;9867;48.094;11.478;2022-12-20T00:53:59;3.10;;;2.80;;
19456;SDS011;9867;48.094;11.478;2022-12-20T00:56:26;2.93;;;2.73;;
19456;SDS011;9867;48.094;11.478;2022-12-20T00:58:56;3.40;;;3.10;;
19456;SDS011;9867;48.094;11.478;2022-12-20T01:01:26;3.73;;;3.43;;
19456;SDS011;9867;48.094;11.478;2022-12-20T01:03:55;3.97;;;3.57;;
19456;SDS011;9867;48.094;11.478;2022-12-20T01:06:24;3.60;;;3.30;;
19456;SDS011;9867;48.094;11.478;2022-12-20T01:08:52;3.73;;;2.90;;
19456;SDS011;9867;48.094;11.478;2022-12-20T01:11:21;3.20;;;2.90;;
19456;SDS011;9867;48.094;11.478;2022-12-20T01:13:51;2.90;;;2.70;;
19456;SDS011;9867;48.094;11.478;2022-12-20T01:16:23;2.80;;;2.60;;
19456;SDS011;9867;48.094;11.478;2022-12-20T01:18:52;3.30;;;2.93;;
19456;SDS011;9867;48.094;11.478;2022-12-20T01:21:21;3.57;;;3.27;;
19456;SDS011;9867;48.094;11.478;2022-12-20T01:23:50;2.93;;;2.73;;
19456;SDS011;9867;48.094;11.478;2022-12-20T01:26:19;3.00;;;2.80;;
19456;SDS011;9867;48.094;11.478;2022-12-20T01:28:51;2.67;;;2.47;;
19456;SDS011;9867;48.094;11.478;2022-12-20T01:31:20;3.07;;;2.87;;
19456;SDS011;9867;48.094;11.478;2022-12-20T01:33:50;2.77;;;2.57;;
19456;SDS011;9867;48.094;11.478;2022-12-20T01:36:19;2.97;;;2.77;;
19456;SDS011;9867;48.094;11.478;2022-12-20T01:38:53;3.30;;;3.00;;
19456;SDS011;9867;48.094;11.478;2022-12-20T01:41:23;2.77;;;2.57;;
19456;SDS011;9867;48.094;11.478;2022-12-20T01:43:52;3.20;;;2.90;;
19456;SDS011;9867;48.094;11.478;2022-12-20T01:46:22;3.37;;;3.07;;
19456;SDS011;9867;48.094;11.478;2022-12-20T01:48:53;3.00;;;2.80;;
19456;SDS011;9867;48.094;11.478;2022-12-20T01:51:25;2.60;;;2.43;;
19456;SDS011;9867;48.094;11.478;2022-12-20T01:53:57;3.13;;;2.93;;
19456;SDS011;9867;48.094;11.478;2022-12-20T01:56:30;3.23;;;3.00;;
19456;SDS011;9867;48.094;11.478;2022-12-20T01:58:58;3.40;;;3.10;;
19456;SDS011;9867;48.094;11.478;2022-12-20T02:01:27;3.27;;;2.97;;
19456;SDS011;9867;48.094;11.478;2022-12-20T02:03:57;3.20;;;3.00;;
19456;SDS011;9867;48.094;11.478;2022-12-20T02:06:25;3.40;;;3.10;;
19456;SDS011;9867;48.094;11.478;2022-12-20T02:08:54;3.33;;;3.03;;
19456;SDS011;9867;48.094;11.478;2022-12-20T02:11:36;3.40;;;3.10;;
19456;SDS011;9867;48.094;11.478;2022-12-20T02:14:14;3.50;;;3.20;;
19456;SDS011;9867;48.094;11.478;2022-12-20T02:16:52;3.23;;;3.03;;
19456;SDS011;9867;48.094;11.478;2022-12-20T02:19:35;2.93;;;2.73;;
19456;SDS011;9867;48.094;11.478;2022-12-20T02:22:25;3.20;;;3.00;;
19456;SDS011;9867;48.094;11.478;2022-12-20T02:25:07;3.07;;;2.87;;
19456;SDS011;9867;48.094;11.478;2022-12-20T02:27:45;3.00;;;2.80;;
19456;SDS011;9867;48.094;11.478;2022-12-20T02:30:22;3.00;;;2.80;;
19456;SDS011;9867;48.094;11.478;2022-12-20T02:32:56;2.70;;;2.50;;
19456;SDS011;9867;48.094;11.478;2022-12-20T02:35:29;3.10;;;2.90;;
19456;SDS011;9867;48.094;11.478;2022-12-20T02:38:02;2.80;;;2.50;;
19456;SDS011;9867;48.094;11.478;2022-12-20T02:40:50;3.40;;;3.10;;
19456;SDS011;9867;48.094;11.478;2022-12-20T02:43:21;2.97;;;2.77;;
19456;SDS011;9867;48.094;11.478;2022-12-20T02:46:10;2.90;;;2.70;;
19456;SDS011;9867;48.094;11.478;2022-12-20T02:48:39;3.30;;;3.00;;
19456;SDS011;9867;48.094;11.478;2022-12-20T02:51:08;3.40;;;2.80;;
19456;SDS011;9867;48.094;11.478;2022-12-20T02:53:38;2.90;;;2.70;;
19456;SDS011;9867;48.094;11.478;2022-12-20T02:56:11;3.20;;;2.90;;
19456;SDS011;9867;48.094;11.478;2022-12-20T02:58:44;3.23;;;2.90;;
19456;SDS011;9867;48.094;11.478;2022-12-20T03:01:22;3.20;;;2.90;;
19456;SDS011;9867;48.094;11.478;2022-12-20T03:03:54;3.53;;;3.23;;
19456;SDS011;9867;48.094;11.478;2022-12-20T03:06:24;3.47;;;2.80;;
19456;SDS011;9867;48.094;11.478;2022-12-20T03:08:52;3.30;;;3.00;;
19456;SDS011;9867;48.094;11.478;2022-12-20T03:11:23;3.30;;;3.03;;
19456;SDS011;9867;48.094;11.478;2022-12-20T03:13:52;4.13;;;2.90;;
19456;SDS011;9867;48.094;11.478;2022-12-20T03:16:21;3.00;;;2.80;;
19456;SDS011;9867;48.094;11.478;2022-12-20T03:18:49;3.33;;;3.13;;
19456;SDS011;9867;48.094;11.478;2022-12-20T03:21:17;3.20;;;3.00;;
19456;SDS011;9867;48.094;11.478;2022-12-20T03:23:45;3.00;;;2.80;;
19456;SDS011;9867;48.094;11.478;2022-12-20T03:26:13;3.10;;;2.90;;
19456;SDS011;9867;48.094;11.478;2022-12-20T03:28:45;3.13;;;2.83;;
19456;SDS011;9867;48.094;11.478;2022-12-20T03:31:17;3.20;;;3.00;;
19456;SDS011;9867;48.094;11.478;2022-12-20T03:33:51;3.47;;;3.20;;
19456;SDS011;9867;48.094;11.478;2022-12-20T03:36:19;3.70;;;3.03;;
19456;SDS011;9867;48.094;11.478;2022-12-20T03:38:53;4.67;;;3.30;;
19456;SDS011;9867;48.094;11.478;2022-12-20T03:41:23;3.30;;;3.00;;
19456;SDS011;9867;48.094;11.478;2022-12-20T03:43:52;3.50;;;3.20;;
19456;SDS011;9867;48.094;11.478;2022-12-20T03:46:21;3.40;;;3.10;;
19456;SDS011;9867;48.094;11.478;2022-12-20T03:48:50;3.63;;;3.33;;
19456;SDS011;9867;48.094;11.478;2022-12-20T03:51:18;3.90;;;3.60;;
19456;SDS011;9867;48.094;11.478;2022-12-20T03:53:46;3.80;;;3.50;;
19456;SDS011;9867;48.094;11.478;2022-12-20T03:56:16;3.80;;;3.50;;
19456;SDS011;9867;48.094;11.478;2022-12-20T03:58:44;4.00;;;3.70;;
19456;SDS011;9867;48.094;11.478;2022-12-20T04:01:18;3.63;;;3.33;;
19456;SDS011;9867;48.094;11.478;2022-12-20T04:03:48;3.67;;;3.30;;
19456;SDS011;9867;48.094;11.478;2022-12-20T04:06:18;3.90;;;3.60;;
19456;SDS011;9867;48.094;11.478;2022-12-20T04:08:46;3.80;;;3.47;;
19456;SDS011;9867;48.094;11.478;2022-12-20T04:11:22;3.67;;;3.37;;
19456;SDS011;9867;48.094;11.478;2022-12-20T04:13:55;3.77;;;3.47;;
19456;SDS011;9867;48.094;11.478;2022-12-20T04:16:23;3.63;;;3.33;;
19456;SDS011;9867;48.094;11.478;2022-12-20T04:18:54;3.70;;;3.40;;
19456;SDS011;9867;48.094;11.478;2022-12-20T04:21:25;4.00;;;3.60;;
19456;SDS011;9867;48.094;11.478;2022-12-20T04:23:56;3.50;;;3.20;;
19456;SDS011;9867;48.094;11.478;2022-12-20T04:26:34;3.83;;;3.53;;
19456;SDS011;9867;48.094;11.478;2022-12-20T04:29:02;4.20;;;3.60;;
19456;SDS011;9867;48.094;11.478;2022-12-20T04:31:31;3.33;;;3.13;;
19456;SDS011;9867;48.094;11.478;2022-12-20T04:34:00;3.90;;;3.50;;
19456;SDS011;9867;48.094;11.478;2022-12-20T04:36:30;3.40;;;3.10;;
19456;SDS011;9867;48.094;11.478;2022-12-20T04:39:01;3.27;;;3.07;;
19456;SDS011;9867;48.094;11.478;2022-12-20T04:41:37;3.57;;;3.27;;
19456;SDS011;9867;48.094;11.478;2022-12-20T04:44:09;3.67;;;3.37;;
19456;SDS011;9867;48.094;11.478;2022-12-20T04:46:37;4.20;;;3.80;;
19456;SDS011;9867;48.094;11.478;2022-12-20T04:49:11;4.37;;;3.50;;
19456;SDS011;9867;48.094;11.478;2022-12-20T04:51:41;3.60;;;3.30;;
19456;SDS011;9867;48.094;11.478;2022-12-20T04:54:11;3.63;;;3.33;;
19456;SDS011;9867;48.094;11.478;2022-12-20T04:56:44;3.63;;;3.33;;
19456;SDS011;9867;48.094;11.478;2022-12-20T04:59:17;3.90;;;3.60;;
19456;SDS011;9867;48.094;11.478;2022-12-20T05:01:48;4.07;;;3.77;;
19456;SDS011;9867;48.094;11.478;2022-12-20T05:04:32;4.67;;;4.10;;
19456;SDS011;9867;48.094;11.478;2022-12-20T05:07:03;4.20;;;3.80;;
19456;SDS011;9867;48.094;11.478;2022-12-20T05:09:33;4.33;;;3.93;;
19456;SDS011;9867;48.094;11.478;2022-12-20T05:12:01;4.07;;;3.63;;
19456;SDS011;9867;48.094;11.478;2022-12-20T05:14:30;5.03;;;3.60;;
19456;SDS011;9867;48.094;11.478;2022-12-20T05:16:58;5.47;;;4.23;;
19456;SDS011;9867;48.094;11.478;2022-12-20T05:19:26;3.90;;;3.60;;
19456;SDS011;9867;48.094;11.478;2022-12-20T05:21:56;4.60;;;3.83;;
19456;SDS011;9867;48.094;11.478;2022-12-20T05:24:53;4.90;;;3.80;;
19456;SDS011;9867;48.094;11.478;2022-12-20T05:27:39;3.97;;;3.50;;
19456;SDS011;9867;48.094;11.478;2022-12-20T05:30:07;3.80;;;3.50;;
19456;SDS011;9867;48.094;11.478;2022-12-20T05:32:36;3.57;;;3.30;;
19456;SDS011;9867;48.094;11.478;2022-12-20T05:35:04;3.80;;;3.50;;
19456;SDS011;9867;48.094;11.478;2022-12-20T05:37:36;3.97;;;3.63;;
19456;SDS011;9867;48.094;11.478;2022-12-20T05:40:12;7.43;;;4.00;;
19456;SDS011;9867;48.094;11.478;2022-12-20T05:42:42;4.60;;;3.57;;
19456;SDS011;9867;48.094;11.478;2022-12-20T05:45:10;4.77;;;3.77;;
19456;SDS011;9867;48.094;11.478;2022-12-20T05:47:47;6.60;;;3.87;;
19456;SDS011;9867;48.094;11.478;2022-12-20T05:50:15;5.40;;;3.60;;
19456;SDS011;9867;48.094;11.478;2022-12-20T05:53:04;4.67;;;4.17;;
19456;SDS011;9867;48.094;11.478;2022-12-20T05:55:43;6.70;;;3.50;;
19456;SDS011;9867;48.094;11.478;2022-12-20T05:58:12;4.00;;;3.60;;
19456;SDS011;9867;48.094;11.478;2022-12-20T06:00:49;4.53;;;3.40;;
19456;SDS011;9867;48.094;11.478;2022-12-20T06:03:17;4.00;;;3.50;;
19456;SDS011;9867;48.094;11.478;2022-12-20T06:05:45;3.37;;;2.97;;
19456;SDS011;9867;48.094;11.478;2022-12-20T06:08:21;3.10;;;2.90;;
19456;SDS011;9867;48.094;11.478;2022-12-20T06:10:51;3.33;;;3.03;;
19456;SDS011;9867;48.094;11.478;2022-12-20T06:13:20;3.00;;;2.80;;
19456;SDS011;9867;48.094;11.478;2022-12-20T06:15:51;3.97;;;3.00;;
19456;SDS011;9867;48.094;11.478;2022-12-20T06:18:20;2.83;;;2.63;;
19456;SDS011;9867;48.094;11.478;2022-12-20T06:20:51;4.07;;;2.40;;
19456;SDS011;9867;48.094;11.478;2022-12-20T06:23:23;2.70;;;2.50;;
19456;SDS011;9867;48.094;11.478;2022-12-20T06:26:04;2.87;;;2.50;;
19456;SDS011;9867;48.094;11.478;2022-12-20T06:28:40;4.10;;;2.80;;
19456;SDS011;9867;48.094;11.478;2022-12-20T06:31:25;2.80;;;2.60;;
19456;SDS011;9867;48.094;11.478;2022-12-20T06:33:54;2.47;;;2.37;;
19456;SDS011;9867;48.094;11.478;2022-12-20T06:36:25;3.77;;;2.67;;
19456;SDS011;9867;48.094;11.478;2022-12-20T06:38:55;3.13;;;2.70;;
19456;SDS011;9867;48.094;11.478;2022-12-20T06:41:24;3.23;;;2.63;;
19456;SDS011;9867;48.094;11.478;2022-12-20T06:43:52;3.10;;;2.80;;
19456;SDS011;9867;48.094;11.478;2022-12-20T06:46:20;3.03;;;2.70;;
19456;SDS011;9867;48.094;11.478;2022-12-20T06:48:48;3.90;;;2.67;;
19456;SDS011;9867;48.094;11.478;2022-12-20T06:51:19;3.83;;;2.93;;
19456;SDS011;9867;48.094;11.478;2022-12-20T06:53:48;3.10;;;2.90;;
19456;SDS011;9867;48.094;11.478;2022-12-20T06:56:18;2.93;;;2.73;;
19456;SDS011;9867;48.094;11.478;2022-12-20T06:58:46;3.90;;;3.50;;
19456;SDS011;9867;48.094;11.478;2022-12-20T07:01:15;5.17;;;4.67;;
19456;SDS011;9867;48.094;11.478;2022-12-20T07:03:42;3.03;;;2.83;;
19456;SDS011;9867;48.094;11.478;2022-12-20T07:06:10;3.27;;;2.97;;
19456;SDS011;9867;48.094;11.478;2022-12-20T07:08:38;3.20;;;2.90;;
19456;SDS011;9867;48.094;11.478;2022-12-20T07:11:06;3.10;;;2.80;;
19456;SDS011;9867;48.094;11.478;2022-12-20T07:13:36;5.37;;;4.00;;
19456;SDS011;9867;48.094;11.478;2022-12-20T07:16:04;4.07;;;3.67;;
19456;SDS011;9867;48.094;11.478;2022-12-20T07:18:32;3.47;;;3.17;;
19456;SDS011;9867;48.094;11.478;2022-12-20T07:21:01;3.83;;;3.00;;
19456;SDS011;9867;48.094;11.478;2022-12-20T07:23:30;4.00;;;3.13;;
19456;SDS011;9867;48.094;11.478;2022-12-20T07:25:59;2.90;;;2.70;;
19456;SDS011;9867;48.094;11.478;2022-12-20T07:28:29;2.90;;;2.70;;
19456;SDS011;9867;48.094;11.478;2022-12-20T07:31:00;3.47;;;3.10;;
19456;SDS011;9867;48.094;11.478;2022-12-20T07:33:29;4.23;;;3.17;;
19456;SDS011;9867;48.094;11.478;2022-12-20T07:36:00;5.20;;;3.40;;
19456;SDS011;9867;48.094;11.478;2022-12-20T07:38:28;3.30;;;3.00;;
19456;SDS011;9867;48.094;11.478;2022-12-20T07:40:56;3.33;;;3.03;;
19456;SDS011;9867;48.094;11.478;2022-12-20T07:43:24;3.30;;;3.10;;
19456;SDS011;9867;48.094;11.478;2022-12-20T07:45:53;3.80;;;2.70;;
19456;SDS011;9867;48.094;11.478;2022-12-20T07:48:23;4.87;;;3.80;;
19456;SDS011;9867;48.094;11.478;2022-12-20T07:50:51;3.37;;;2.87;;
19456;SDS011;9867;48.094;11.478;2022-12-20T07:53:22;3.80;;;2.50;;
19456;SDS011;9867;48.094;11.478;2022-12-20T07:55:51;2.80;;;2.60;;
19456;SDS011;9867;48.094;11.478;2022-12-20T07:58:20;3.23;;;2.93;;
19456;SDS011;9867;48.094;11.478;2022-12-20T08:00:48;2.77;;;2.57;;
19456;SDS011;9867;48.094;11.478;2022-12-20T08:03:17;2.83;;;2.47;;
19456;SDS011;9867;48.094;11.478;2022-12-20T08:05:50;3.37;;;2.80;;
19456;SDS011;9867;48.094;11.478;2022-12-20T08:08:21;3.00;;;2.70;;
19456;SDS011;9867;48.094;11.478;2022-12-20T08:10:49;4.40;;;3.00;;
19456;SDS011;9867;48.094;11.478;2022-12-20T08:13:17;3.13;;;2.83;;
19456;SDS011;9867;48.094;11.478;2022-12-20T08:15:45;5.23;;;3.00;;
19456;SDS011;9867;48.094;11.478;2022-12-20T08:18:13;4.77;;;3.00;;
19456;SDS011;9867;48.094;11.478;2022-12-20T08:20:41;5.87;;;3.30;;
19456;SDS011;9867;48.094;11.478;2022-12-20T08:23:10;4.97;;;2.73;;
19456;SDS011;9867;48.094;11.478;2022-12-20T08:25:38;3.13;;;2.50;;
19456;SDS011;9867;48.094;11.478;2022-12-20T08:28:07;2.70;;;2.50;;
19456;SDS011;9867;48.094;11.478;2022-12-20T08:30:36;3.03;;;2.63;;
19456;SDS011;9867;48.094;11.478;2022-12-20T08:33:04;4.03;;;2.47;;
19456;SDS011;9867;48.094;11.478;2022-12-20T08:35:32;7.00;;;2.23;;
19456;SDS011;9867;48.094;11.478;2022-12-20T08:38:00;4.10;;;2.87;;
19456;SDS011;9867;48.094;11.478;2022-12-20T08:40:30;5.87;;;2.90;;
19456;SDS011;9867;48.094;11.478;2022-12-20T08:42:57;3.27;;;2.63;;
19456;SDS011;9867;48.094;11.478;2022-12-20T08:45:33;3.20;;;2.83;;
19456;SDS011;9867;48.094;11.478;2022-12-20T08:48:01;2.73;;;2.53;;
19456;SDS011;9867;48.094;11.478;2022-12-20T08:50:29;2.77;;;2.50;;
19456;SDS011;9867;48.094;11.478;2022-12-20T08:52:57;3.03;;;2.43;;
19456;SDS011;9867;48.094;11.478;2022-12-20T08:55:25;2.53;;;2.33;;
19456;SDS011;9867;48.094;11.478;2022-12-20T08:57:56;3.03;;;2.33;;
19456;SDS011;9867;48.094;11.478;2022-12-20T09:00:24;4.80;;;2.43;;
19456;SDS011;9867;48.094;11.478;2022-12-20T09:02:52;2.87;;;2.67;;
19456;SDS011;9867;48.094;11.478;2022-12-20T09:05:21;3.37;;;2.40;;
19456;SDS011;9867;48.094;11.478;2022-12-20T09:07:49;5.00;;;3.30;;
19456;SDS011;9867;48.094;11.478;2022-12-20T09:10:17;2.93;;;2.70;;
19456;SDS011;9867;48.094;11.478;2022-12-20T09:12:44;6.23;;;2.90;;
19456;SDS011;9867;48.094;11.478;2022-12-20T09:15:14;4.77;;;2.27;;
19456;SDS011;9867;48.094;11.478;2022-12-20T09:17:42;2.60;;;2.40;;
19456;SDS011;9867;48.094;11.478;2022-12-20T09:20:10;2.80;;;2.60;;
19456;SDS011;9867;48.094;11.478;2022-12-20T09:22:38;3.83;;;2.47;;
19456;SDS011;9867;48.094;11.478;2022-12-20T09:25:06;4.93;;;2.90;;
19456;SDS011;9867;48.094;11.478;2022-12-20T09:27:34;3.67;;;2.90;;
19456;SDS011;9867;48.094;11.478;2022-12-20T09:30:03;3.00;;;2.80;;
19456;SDS011;9867;48.094;11.478;2022-12-20T09:32:33;3.57;;;2.60;;
19456;SDS011;9867;48.094;11.478;2022-12-20T09:35:01;2.67;;;2.47;;
19456;SDS011;9867;48.094;11.478;2022-12-20T09:37:29;5.40;;;2.77;;
19456;SDS011;9867;48.094;11.478;2022-12-20T09:39:57;3.23;;;2.90;;
19456;SDS011;9867;48.094;11.478;2022-12-20T09:42:26;3.30;;;2.80;;
19456;SDS011;9867;48.094;11.478;2022-12-20T09:44:58;3.17;;;2.87;;
19456;SDS011;9867;48.094;11.478;2022-12-20T09:47:28;2.90;;;2.70;;
19456;SDS011;9867;48.094;11.478;2022-12-20T09:49:58;4.33;;;2.60;;
19456;SDS011;9867;48.094;11.478;2022-12-20T09:52:28;3.00;;;2.70;;
19456;SDS011;9867;48.094;11.478;2022-12-20T09:55:12;2.97;;;2.77;;
19456;SDS011;9867;48.094;11.478;2022-12-20T09:57:57;3.47;;;2.57;;
19456;SDS011;9867;48.094;11.478;2022-12-20T10:00:39;3.23;;;2.93;;
19456;SDS011;9867;48.094;11.478;2022-12-20T10:03:19;2.77;;;2.57;;
19456;SDS011;9867;48.094;11.478;2022-12-20T10:05:52;2.70;;;2.50;;
19456;SDS011;9867;48.094;11.478;2022-12-20T10:08:33;2.70;;;2.50;;
19456;SDS011;9867;48.094;11.478;2022-12-20T10:11:08;2.53;;;2.40;;
19456;SDS011;9867;48.094;11.478;2022-12-20T10:13:56;2.87;;;2.43;;
19456;SDS011;9867;48.094;11.478;2022-12-20T10:16:37;3.17;;;2.83;;
19456;SDS011;9867;48.094;11.478;2022-12-20T10:19:13;3.23;;;2.93;;
19456;SDS011;9867;48.094;11.478;2022-12-20T10:21:55;3.27;;;2.97;;
19456;SDS011;9867;48.094;11.478;2022-12-20T10:24:32;3.10;;;2.80;;
19456;SDS011;9867;48.094;11.478;2022-12-20T10:27:03;4.40;;;3.10;;
19456;SDS011;9867;48.094;11.478;2022-12-20T10:29:39;3.37;;;3.07;;
19456;SDS011;9867;48.094;11.478;2022-12-20T10:32:09;3.40;;;3.10;;
19456;SDS011;9867;48.094;11.478;2022-12-20T10:34:42;2.67;;;2.47;;
19456;SDS011;9867;48.094;11.478;2022-12-20T10:37:20;2.33;;;1.70;;
19456;SDS011;9867;48.094;11.478;2022-12-20T10:39:52;2.80;;;1.90;;
19456;SDS011;9867;48.094;11.478;2022-12-20T10:42:24;2.50;;;2.30;;
19456;SDS011;9867;48.094;11.478;2022-12-20T10:44:57;3.47;;;2.50;;
19456;SDS011;9867;48.094;11.478;2022-12-20T10:47:30;4.67;;;2.37;;
19456;SDS011;9867;48.094;11.478;2022-12-20T10:50:09;3.40;;;2.40;;
19456;SDS011;9867;48.094;11.478;2022-12-20T10:52:43;3.03;;;2.23;;
19456;SDS011;9867;48.094;11.478;2022-12-20T10:58:11;3.50;;;2.33;;
19456;SDS011;9867;48.094;11.478;2022-12-20T11:00:42;2.87;;;2.40;;
19456;SDS011;9867;48.094;11.478;2022-12-20T11:03:13;3.27;;;2.40;;
19456;SDS011;9867;48.094;11.478;2022-12-20T11:05:56;2.93;;;2.60;;
19456;SDS011;9867;48.094;11.478;2022-12-20T11:08:28;2.97;;;2.60;;
19456;SDS011;9867;48.094;11.478;2022-12-20T11:11:11;3.47;;;2.67;;
19456;SDS011;9867;48.094;11.478;2022-12-20T11:13:41;2.90;;;2.70;;
19456;SDS011;9867;48.094;11.478;2022-12-20T11:16:27;2.83;;;2.63;;
19456;SDS011;9867;48.094;11.478;2022-12-20T11:19:05;4.77;;;2.83;;
19456;SDS011;9867;48.094;11.478;2022-12-20T11:21:58;3.10;;;2.60;;
19456;SDS011;9867;48.094;11.478;2022-12-20T11:24:34;2.87;;;2.50;;
19456;SDS011;9867;48.094;11.478;2022-12-20T11:27:15;2.80;;;2.60;;
19456;SDS011;9867;48.094;11.478;2022-12-20T11:30:06;3.33;;;2.73;;
19456;SDS011;9867;48.094;11.478;2022-12-20T11:32:42;2.60;;;2.40;;
19456;SDS011;9867;48.094;11.478;2022-12-20T11:35:41;4.50;;;2.63;;
19456;SDS011;9867;48.094;11.478;2022-12-20T11:38:24;3.17;;;2.73;;
19456;SDS011;9867;48.094;11.478;2022-12-20T11:41:09;3.83;;;2.67;;
19456;SDS011;9867;48.094;11.478;2022-12-20T11:43:48;4.73;;;2.97;;
19456;SDS011;9867;48.094;11.478;2022-12-20T11:46:52;3.10;;;2.80;;
19456;SDS011;9867;48.094;11.478;2022-12-20T11:52:27;5.30;;;3.27;;
19456;SDS011;9867;48.094;11.478;2022-12-20T11:55:03;5.77;;;3.70;;
19456;SDS011;9867;48.094;11.478;2022-12-20T11:57:45;6.40;;;4.00;;
19456;SDS011;9867;48.094;11.478;2022-12-20T12:00:41;5.77;;;3.90;;
19456;SDS011;9867;48.094;11.478;2022-12-20T12:03:18;6.13;;;3.50;;
19456;SDS011;9867;48.094;11.478;2022-12-20T12:05:53;5.33;;;3.20;;
19456;SDS011;9867;48.094;11.478;2022-12-20T12:08:27;4.93;;;3.70;;
19456;SDS011;9867;48.094;11.478;2022-12-20T12:11:03;4.03;;;3.67;;
19456;SDS011;9867;48.094;11.478;2022-12-20T12:13:56;5.37;;;3.50;;
19456;SDS011;9867;48.094;11.478;2022-12-20T12:16:28;4.57;;;3.50;;
19456;SDS011;9867;48.094;11.478;2022-12-20T12:19:01;4.40;;;3.57;;
19456;SDS011;9867;48.094;11.478;2022-12-20T12:21:30;3.83;;;3.43;;
19456;SDS011;9867;48.094;11.478;2022-12-20T12:24:04;5.23;;;3.63;;
19456;SDS011;9867;48.094;11.478;2022-12-20T12:26:38;4.63;;;3.80;;
19456;SDS011;9867;48.094;11.478;2022-12-20T12:29:10;6.30;;;3.57;;
19456;SDS011;9867;48.094;11.478;2022-12-20T12:31:41;3.93;;;3.40;;
19456;SDS011;9867;48.094;11.478;2022-12-20T12:34:20;3.67;;;3.00;;
19456;SDS011;9867;48.094;11.478;2022-12-20T12:37:06;4.67;;;3.33;;
19456;SDS011;9867;48.094;11.478;2022-12-20T12:40:02;3.80;;;3.40;;
19456;SDS011;9867;48.094;11.478;2022-12-20T12:42:57;4.40;;;3.30;;
19456;SDS011;9867;48.094;11.478;2022-12-20T12:45:41;4.10;;;3.50;;
19456;SDS011;9867;48.094;11.478;2022-12-20T12:48:14;3.97;;;3.57;;
19456;SDS011;9867;48.094;11.478;2022-12-20T12:50:47;4.20;;;3.60;;
19456;SDS011;9867;48.094;11.478;2022-12-20T12:53:18;21.50;;;19.30;;
19456;SDS011;9867;48.094;11.478;2022-12-20T12:55:49;17.47;;;14.77;;
19456;SDS011;9867;48.094;11.478;2022-12-20T12:58:38;11.07;;;6.60;;
19456;SDS011;9867;48.094;11.478;2022-12-20T13:01:28;6.57;;;5.50;;
19456;SDS011;9867;48.094;11.478;2022-12-20T13:04:26;6.47;;;5.57;;
19456;SDS011;9867;48.094;11.478;2022-12-20T13:06:57;5.60;;;5.07;;
19456;SDS011;9867;48.094;11.478;2022-12-20T13:09:37;6.73;;;4.43;;
19456;SDS011;9867;48.094;11.478;2022-12-20T13:18:23;7.67;;;5.63;;
19456;SDS011;9867;48.094;11.478;2022-12-20T13:27:01;4.50;;;3.50;;
19456;SDS011;9867;48.094;11.478;2022-12-20T13:29:32;5.47;;;3.50;;
19456;SDS011;9867;48.094;11.478;2022-12-20T13:32:01;4.03;;;3.23;;
19456;SDS011;9867;48.094;11.478;2022-12-20T13:34:38;5.40;;;3.50;;
19456;SDS011;9867;48.094;11.478;2022-12-20T13:37:27;4.50;;;4.10;;
19456;SDS011;9867;48.094;11.478;2022-12-20T13:40:22;5.73;;;4.50;;
19456;SDS011;9867;48.094;11.478;2022-12-20T13:42:57;5.20;;;4.00;;
19456;SDS011;9867;48.094;11.478;2022-12-20T13:45:32;6.53;;;4.77;;
19456;SDS011;9867;48.094;11.478;2022-12-20T13:48:01;5.13;;;4.40;;
19456;SDS011;9867;48.094;11.478;2022-12-20T13:50:38;6.60;;;4.20;;
19456;SDS011;9867;48.094;11.478;2022-12-20T13:53:15;4.67;;;4.17;;
19456;SDS011;9867;48.094;11.478;2022-12-20T13:55:44;4.10;;;3.70;;
19456;SDS011;9867;48.094;11.478;2022-12-20T13:58:16;8.17;;;4.00;;
19456;SDS011;9867;48.094;11.478;2022-12-20T14:00:46;4.80;;;3.70;;
19456;SDS011;9867;48.094;11.478;2022-12-20T14:03:20;4.00;;;3.60;;
19456;SDS011;9867;48.094;11.478;2022-12-20T14:05:54;4.27;;;3.43;;
19456;SDS011;9867;48.094;11.478;2022-12-20T14:08:25;4.43;;;4.00;;
19456;SDS011;9867;48.094;11.478;2022-12-20T14:11:05;9.27;;;4.80;;
19456;SDS011;9867;48.094;11.478;2022-12-20T14:13:35;6.73;;;4.10;;
19456;SDS011;9867;48.094;11.478;2022-12-20T14:16:07;5.97;;;5.37;;
19456;SDS011;9867;48.094;11.478;2022-12-20T14:18:37;4.37;;;3.97;;
19456;SDS011;9867;48.094;11.478;2022-12-20T14:21:06;6.40;;;4.60;;
19456;SDS011;9867;48.094;11.478;2022-12-20T14:23:36;7.40;;;5.30;;
19456;SDS011;9867;48.094;11.478;2022-12-20T14:26:09;7.70;;;5.90;;
19456;SDS011;9867;48.094;11.478;2022-12-20T14:28:39;6.70;;;5.53;;
19456;SDS011;9867;48.094;11.478;2022-12-20T14:31:20;6.03;;;5.43;;
19456;SDS011;9867;48.094;11.478;2022-12-20T14:33:50;8.03;;;5.17;;
19456;SDS011;9867;48.094;11.478;2022-12-20T14:36:28;8.07;;;5.77;;
19456;SDS011;9867;48.094;11.478;2022-12-20T14:38:57;12.33;;;9.83;;
19456;SDS011;9867;48.094;11.478;2022-12-20T14:41:28;8.07;;;6.50;;
19456;SDS011;9867;48.094;11.478;2022-12-20T14:44:02;9.80;;;6.70;;
19456;SDS011;9867;48.094;11.478;2022-12-20T14:46:40;10.97;;;6.30;;
19456;SDS011;9867;48.094;11.478;2022-12-20T14:49:20;10.67;;;8.40;;
19456;SDS011;9867;48.094;11.478;2022-12-20T14:52:04;8.87;;;5.40;;
19456;SDS011;9867;48.094;11.478;2022-12-20T14:54:34;14.33;;;9.70;;
19456;SDS011;9867;48.094;11.478;2022-12-20T14:57:30;11.50;;;8.67;;
19456;SDS011;9867;48.094;11.478;2022-12-20T15:00:09;16.23;;;13.20;;
19456;SDS011;9867;48.094;11.478;2022-12-20T15:02:45;19.57;;;14.47;;
19456;SDS011;9867;48.094;11.478;2022-12-20T15:08:16;13.87;;;10.10;;
19456;SDS011;9867;48.094;11.478;2022-12-20T15:10:47;12.53;;;10.20;;
19456;SDS011;9867;48.094;11.478;2022-12-20T15:13:18;16.60;;;9.30;;
19456;SDS011;9867;48.094;11.478;2022-12-20T15:15:48;13.53;;;10.60;;
19456;SDS011;9867;48.094;11.478;2022-12-20T15:18:17;18.77;;;10.30;;
19456;SDS011;9867;48.094;11.478;2022-12-20T15:20:47;15.33;;;10.73;;
19456;SDS011;9867;48.094;11.478;2022-12-20T15:23:22;16.90;;;12.53;;
19456;SDS011;9867;48.094;11.478;2022-12-20T15:25:52;10.23;;;8.37;;
19456;SDS011;9867;48.094;11.478;2022-12-20T15:28:21;12.97;;;11.33;;
19456;SDS011;9867;48.094;11.478;2022-12-20T15:30:51;11.10;;;7.93;;
19456;SDS011;9867;48.094;11.478;2022-12-20T15:33:20;8.53;;;6.80;;
19456;SDS011;9867;48.094;11.478;2022-12-20T15:35:51;8.90;;;6.97;;
19456;SDS011;9867;48.094;11.478;2022-12-20T15:38:22;12.80;;;10.37;;
19456;SDS011;9867;48.094;11.478;2022-12-20T15:41:13;8.73;;;6.47;;